sensor_id;sensor_type;location;lat;lon;timestamp;temperature;humidity
3868;DHT22;1949;48.152;11.528;2022-12-05T00:01:23;9.10;49.20
3868;DHT22;1949;48.152;11.528;2022-12-05T00:03:58;9.10;49.30
3868;DHT22;1949;48.152;11.528;2022-12-05T00:06:27;9.10;49.20
3868;DHT22;1949;48.152;11.528;2022-12-05T00:08:53;9.20;49.30
3868;DHT22;1949;48.152;11.528;2022-12-05T00:11:22;9.10;49.20
3868;DHT22;1949;48.152;11.528;2022-12-05T00:13:49;9.20;49.20
3868;DHT22;1949;48.152;11.528;2022-12-05T00:16:18;9.10;49.10
3868;DHT22;1949;48.152;11.528;2022-12-05T00:18:48;9.10;49.10
3868;DHT22;1949;48.152;11.528;2022-12-05T00:21:26;9.10;49.10
3868;DHT22;1949;48.152;11.528;2022-12-05T00:23:53;9.00;49.10
3868;DHT22;1949;48.152;11.528;2022-12-05T00:26:21;9.10;49.30
3868;DHT22;1949;48.152;11.528;2022-12-05T00:28:47;9.10;49.30
3868;DHT22;1949;48.152;11.528;2022-12-05T00:31:18;9.10;49.30
3868;DHT22;1949;48.152;11.528;2022-12-05T00:33:59;9.10;49.40
3868;DHT22;1949;48.152;11.528;2022-12-05T00:36:29;9.10;49.30
3868;DHT22;1949;48.152;11.528;2022-12-05T00:38:59;9.10;49.30
3868;DHT22;1949;48.152;11.528;2022-12-05T00:41:26;9.10;49.30
3868;DHT22;1949;48.152;11.528;2022-12-05T00:43:54;9.10;49.20
3868;DHT22;1949;48.152;11.528;2022-12-05T00:46:28;9.10;49.20
3868;DHT22;1949;48.152;11.528;2022-12-05T00:48:55;9.10;49.10
3868;DHT22;1949;48.152;11.528;2022-12-05T00:51:25;9.00;49.10
3868;DHT22;1949;48.152;11.528;2022-12-05T00:53:54;9.00;49.10
3868;DHT22;1949;48.152;11.528;2022-12-05T00:56:26;9.00;49.20
3868;DHT22;1949;48.152;11.528;2022-12-05T00:58:57;9.00;49.90
3868;DHT22;1949;48.152;11.528;2022-12-05T01:01:40;8.90;49.40
3868;DHT22;1949;48.152;11.528;2022-12-05T01:04:11;9.00;49.50
3868;DHT22;1949;48.152;11.528;2022-12-05T01:06:38;9.00;49.50
3868;DHT22;1949;48.152;11.528;2022-12-05T01:09:05;9.00;49.50
3868;DHT22;1949;48.152;11.528;2022-12-05T01:11:31;9.00;49.40
3868;DHT22;1949;48.152;11.528;2022-12-05T01:13:57;9.00;49.30
3868;DHT22;1949;48.152;11.528;2022-12-05T01:16:31;9.00;49.30
3868;DHT22;1949;48.152;11.528;2022-12-05T01:18:59;9.10;49.50
3868;DHT22;1949;48.152;11.528;2022-12-05T01:21:30;9.10;49.40
3868;DHT22;1949;48.152;11.528;2022-12-05T01:23:58;9.00;49.30
3868;DHT22;1949;48.152;11.528;2022-12-05T01:26:24;9.00;49.50
3868;DHT22;1949;48.152;11.528;2022-12-05T01:28:52;9.10;49.40
3868;DHT22;1949;48.152;11.528;2022-12-05T01:31:25;9.10;49.30
3868;DHT22;1949;48.152;11.528;2022-12-05T01:33:52;9.10;49.30
3868;DHT22;1949;48.152;11.528;2022-12-05T01:36:19;9.10;49.40
3868;DHT22;1949;48.152;11.528;2022-12-05T01:38:46;9.00;49.40
3868;DHT22;1949;48.152;11.528;2022-12-05T01:41:17;9.10;49.50
3868;DHT22;1949;48.152;11.528;2022-12-05T01:46:48;9.10;49.50
3868;DHT22;1949;48.152;11.528;2022-12-05T01:51:51;9.10;49.50
3868;DHT22;1949;48.152;11.528;2022-12-05T01:54:18;9.10;49.50
3868;DHT22;1949;48.152;11.528;2022-12-05T01:56:49;9.20;49.50
3868;DHT22;1949;48.152;11.528;2022-12-05T01:59:19;9.20;49.50
3868;DHT22;1949;48.152;11.528;2022-12-05T02:01:47;9.10;49.20
3868;DHT22;1949;48.152;11.528;2022-12-05T02:04:14;9.10;49.30
3868;DHT22;1949;48.152;11.528;2022-12-05T02:06:43;9.10;49.30
3868;DHT22;1949;48.152;11.528;2022-12-05T02:09:14;9.00;49.30
3868;DHT22;1949;48.152;11.528;2022-12-05T02:11:53;9.00;49.70
3868;DHT22;1949;48.152;11.528;2022-12-05T02:23:18;8.90;49.40
3868;DHT22;1949;48.152;11.528;2022-12-05T02:26:08;8.90;49.50
3868;DHT22;1949;48.152;11.528;2022-12-05T02:34:44;8.90;49.40
3868;DHT22;1949;48.152;11.528;2022-12-05T02:40:03;8.90;49.40
3868;DHT22;1949;48.152;11.528;2022-12-05T02:43:21;8.80;49.20
3868;DHT22;1949;48.152;11.528;2022-12-05T02:45:28;8.80;49.30
3868;DHT22;1949;48.152;11.528;2022-12-05T02:47:56;8.80;49.50
3868;DHT22;1949;48.152;11.528;2022-12-05T02:50:28;8.80;49.50
3868;DHT22;1949;48.152;11.528;2022-12-05T02:52:58;8.80;49.60
3868;DHT22;1949;48.152;11.528;2022-12-05T02:55:26;8.80;49.60
3868;DHT22;1949;48.152;11.528;2022-12-05T02:57:57;8.80;49.40
3868;DHT22;1949;48.152;11.528;2022-12-05T03:00:26;8.70;49.20
3868;DHT22;1949;48.152;11.528;2022-12-05T03:02:57;8.70;49.50
3868;DHT22;1949;48.152;11.528;2022-12-05T03:05:36;8.70;49.70
3868;DHT22;1949;48.152;11.528;2022-12-05T03:08:07;8.70;49.70
3868;DHT22;1949;48.152;11.528;2022-12-05T03:10:36;8.70;49.60
3868;DHT22;1949;48.152;11.528;2022-12-05T03:13:18;8.70;49.60
3868;DHT22;1949;48.152;11.528;2022-12-05T03:15:55;8.70;49.50
3868;DHT22;1949;48.152;11.528;2022-12-05T03:18:28;8.70;49.60
3868;DHT22;1949;48.152;11.528;2022-12-05T03:24:02;8.70;49.60
3868;DHT22;1949;48.152;11.528;2022-12-05T03:41:42;8.60;49.70
3868;DHT22;1949;48.152;11.528;2022-12-05T03:44:22;8.60;49.70
3868;DHT22;1949;48.152;11.528;2022-12-05T03:46:58;8.60;49.60
3868;DHT22;1949;48.152;11.528;2022-12-05T03:49:39;8.60;49.60
3868;DHT22;1949;48.152;11.528;2022-12-05T03:54:45;8.60;49.80
3868;DHT22;1949;48.152;11.528;2022-12-05T04:05:50;8.60;49.90
3868;DHT22;1949;48.152;11.528;2022-12-05T04:10:55;8.60;49.70
3868;DHT22;1949;48.152;11.528;2022-12-05T04:16:11;8.70;49.90
3868;DHT22;1949;48.152;11.528;2022-12-05T04:19:02;8.70;49.70
3868;DHT22;1949;48.152;11.528;2022-12-05T04:21:35;8.70;49.70
3868;DHT22;1949;48.152;11.528;2022-12-05T04:24:31;8.80;49.80
3868;DHT22;1949;48.152;11.528;2022-12-05T04:30:09;8.80;49.90
3868;DHT22;1949;48.152;11.528;2022-12-05T04:35:22;8.80;49.60
3868;DHT22;1949;48.152;11.528;2022-12-05T04:37:52;8.80;49.70
3868;DHT22;1949;48.152;11.528;2022-12-05T04:40:36;8.80;49.90
3868;DHT22;1949;48.152;11.528;2022-12-05T04:43:05;8.90;49.90
3868;DHT22;1949;48.152;11.528;2022-12-05T04:45:33;8.90;49.80
3868;DHT22;1949;48.152;11.528;2022-12-05T04:48:04;8.90;49.70
3868;DHT22;1949;48.152;11.528;2022-12-05T04:50:44;8.90;49.80
3868;DHT22;1949;48.152;11.528;2022-12-05T04:53:14;8.90;49.70
3868;DHT22;1949;48.152;11.528;2022-12-05T04:55:45;8.90;49.60
3868;DHT22;1949;48.152;11.528;2022-12-05T04:58:18;8.90;49.70
3868;DHT22;1949;48.152;11.528;2022-12-05T05:03:58;8.90;49.70
3868;DHT22;1949;48.152;11.528;2022-12-05T05:06:26;8.90;49.80
3868;DHT22;1949;48.152;11.528;2022-12-05T05:08:55;8.90;49.90
3868;DHT22;1949;48.152;11.528;2022-12-05T05:11:38;8.90;49.90
3868;DHT22;1949;48.152;11.528;2022-12-05T05:14:06;9.00;49.90
3868;DHT22;1949;48.152;11.528;2022-12-05T05:16:38;8.90;49.90
3868;DHT22;1949;48.152;11.528;2022-12-05T05:19:06;8.90;50.00
3868;DHT22;1949;48.152;11.528;2022-12-05T05:21:39;9.00;50.00
3868;DHT22;1949;48.152;11.528;2022-12-05T05:24:07;9.00;50.00
3868;DHT22;1949;48.152;11.528;2022-12-05T05:26:36;9.10;49.90
3868;DHT22;1949;48.152;11.528;2022-12-05T05:29:04;9.10;49.90
3868;DHT22;1949;48.152;11.528;2022-12-05T05:31:35;9.10;49.90
3868;DHT22;1949;48.152;11.528;2022-12-05T05:34:12;9.10;49.90
3868;DHT22;1949;48.152;11.528;2022-12-05T05:36:42;9.20;50.00
3868;DHT22;1949;48.152;11.528;2022-12-05T05:39:12;9.20;49.90
3868;DHT22;1949;48.152;11.528;2022-12-05T05:41:40;9.20;49.90
3868;DHT22;1949;48.152;11.528;2022-12-05T05:44:06;9.20;49.70
3868;DHT22;1949;48.152;11.528;2022-12-05T05:46:35;9.30;49.90
3868;DHT22;1949;48.152;11.528;2022-12-05T05:49:03;9.30;49.90
3868;DHT22;1949;48.152;11.528;2022-12-05T05:51:28;9.30;49.90
3868;DHT22;1949;48.152;11.528;2022-12-05T05:53:55;9.30;49.90
3868;DHT22;1949;48.152;11.528;2022-12-05T05:56:28;9.40;49.90
3868;DHT22;1949;48.152;11.528;2022-12-05T05:58:57;9.40;49.90
3868;DHT22;1949;48.152;11.528;2022-12-05T06:01:24;9.40;49.90
3868;DHT22;1949;48.152;11.528;2022-12-05T06:03:49;9.40;49.80
3868;DHT22;1949;48.152;11.528;2022-12-05T06:06:15;9.50;49.80
3868;DHT22;1949;48.152;11.528;2022-12-05T06:08:44;9.40;49.70
3868;DHT22;1949;48.152;11.528;2022-12-05T06:11:20;9.50;49.90
3868;DHT22;1949;48.152;11.528;2022-12-05T06:13:47;9.50;49.90
3868;DHT22;1949;48.152;11.528;2022-12-05T06:16:19;9.50;49.80
3868;DHT22;1949;48.152;11.528;2022-12-05T06:18:45;9.50;49.90
3868;DHT22;1949;48.152;11.528;2022-12-05T06:21:11;9.50;49.80
3868;DHT22;1949;48.152;11.528;2022-12-05T06:23:38;9.50;49.70
3868;DHT22;1949;48.152;11.528;2022-12-05T06:26:08;9.40;49.70
3868;DHT22;1949;48.152;11.528;2022-12-05T06:28:34;9.40;49.90
3868;DHT22;1949;48.152;11.528;2022-12-05T06:31:09;9.50;49.90
3868;DHT22;1949;48.152;11.528;2022-12-05T06:33:37;9.40;49.80
3868;DHT22;1949;48.152;11.528;2022-12-05T06:36:09;9.40;49.80
3868;DHT22;1949;48.152;11.528;2022-12-05T06:38:35;9.50;49.90
3868;DHT22;1949;48.152;11.528;2022-12-05T06:41:04;9.50;50.00
3868;DHT22;1949;48.152;11.528;2022-12-05T06:43:32;9.50;50.10
3868;DHT22;1949;48.152;11.528;2022-12-05T06:45:58;9.50;50.00
3868;DHT22;1949;48.152;11.528;2022-12-05T06:48:24;9.60;50.00
3868;DHT22;1949;48.152;11.528;2022-12-05T06:50:52;9.50;49.90
3868;DHT22;1949;48.152;11.528;2022-12-05T06:53:18;9.60;49.90
3868;DHT22;1949;48.152;11.528;2022-12-05T06:56:00;9.60;49.90
3868;DHT22;1949;48.152;11.528;2022-12-05T06:58:27;9.60;49.90
3868;DHT22;1949;48.152;11.528;2022-12-05T07:00:53;9.60;49.90
3868;DHT22;1949;48.152;11.528;2022-12-05T07:03:38;9.60;50.00
3868;DHT22;1949;48.152;11.528;2022-12-05T07:06:05;9.70;50.00
3868;DHT22;1949;48.152;11.528;2022-12-05T07:08:32;9.60;49.90
3868;DHT22;1949;48.152;11.528;2022-12-05T07:10:57;9.60;49.90
3868;DHT22;1949;48.152;11.528;2022-12-05T07:13:23;9.60;49.90
3868;DHT22;1949;48.152;11.528;2022-12-05T07:15:49;9.70;50.00
3868;DHT22;1949;48.152;11.528;2022-12-05T07:18:16;9.60;49.90
3868;DHT22;1949;48.152;11.528;2022-12-05T07:20:42;9.60;49.90
3868;DHT22;1949;48.152;11.528;2022-12-05T07:23:08;9.70;50.00
3868;DHT22;1949;48.152;11.528;2022-12-05T07:25:39;9.70;50.00
3868;DHT22;1949;48.152;11.528;2022-12-05T07:28:05;9.70;50.00
3868;DHT22;1949;48.152;11.528;2022-12-05T07:30:30;9.70;49.80
3868;DHT22;1949;48.152;11.528;2022-12-05T07:32:56;9.80;49.90
3868;DHT22;1949;48.152;11.528;2022-12-05T07:35:22;9.80;49.90
3868;DHT22;1949;48.152;11.528;2022-12-05T07:37:48;9.80;49.90
3868;DHT22;1949;48.152;11.528;2022-12-05T07:40:13;9.70;49.80
3868;DHT22;1949;48.152;11.528;2022-12-05T07:42:39;9.80;49.80
3868;DHT22;1949;48.152;11.528;2022-12-05T07:45:07;9.90;49.90
3868;DHT22;1949;48.152;11.528;2022-12-05T07:47:33;9.90;49.90
3868;DHT22;1949;48.152;11.528;2022-12-05T07:50:00;10.00;49.00
3868;DHT22;1949;48.152;11.528;2022-12-05T07:52:27;9.90;49.80
3868;DHT22;1949;48.152;11.528;2022-12-05T07:54:52;9.90;49.80
3868;DHT22;1949;48.152;11.528;2022-12-05T07:57:19;10.00;48.90
3868;DHT22;1949;48.152;11.528;2022-12-05T07:59:45;10.00;48.90
3868;DHT22;1949;48.152;11.528;2022-12-05T08:02:12;10.00;48.80
3868;DHT22;1949;48.152;11.528;2022-12-05T08:04:39;10.00;48.90
3868;DHT22;1949;48.152;11.528;2022-12-05T08:07:09;10.00;48.90
3868;DHT22;1949;48.152;11.528;2022-12-05T08:09:35;10.00;48.90
3868;DHT22;1949;48.152;11.528;2022-12-05T08:12:02;10.00;48.90
3868;DHT22;1949;48.152;11.528;2022-12-05T08:14:30;10.00;48.90
3868;DHT22;1949;48.152;11.528;2022-12-05T08:16:56;10.00;48.80
3868;DHT22;1949;48.152;11.528;2022-12-05T08:19:23;10.00;48.80
3868;DHT22;1949;48.152;11.528;2022-12-05T08:21:53;10.00;48.80
3868;DHT22;1949;48.152;11.528;2022-12-05T08:24:18;10.00;48.80
3868;DHT22;1949;48.152;11.528;2022-12-05T08:26:45;10.00;48.80
3868;DHT22;1949;48.152;11.528;2022-12-05T08:29:13;10.00;48.80
3868;DHT22;1949;48.152;11.528;2022-12-05T08:31:43;10.00;48.80
3868;DHT22;1949;48.152;11.528;2022-12-05T08:34:12;10.00;48.80
3868;DHT22;1949;48.152;11.528;2022-12-05T08:36:40;10.10;48.80
3868;DHT22;1949;48.152;11.528;2022-12-05T08:39:07;10.00;48.70
3868;DHT22;1949;48.152;11.528;2022-12-05T08:41:33;10.00;48.80
3868;DHT22;1949;48.152;11.528;2022-12-05T08:44:02;10.10;48.90
3868;DHT22;1949;48.152;11.528;2022-12-05T08:46:32;10.10;49.00
3868;DHT22;1949;48.152;11.528;2022-12-05T08:48:58;10.10;49.00
3868;DHT22;1949;48.152;11.528;2022-12-05T08:51:24;10.10;48.90
3868;DHT22;1949;48.152;11.528;2022-12-05T08:53:50;10.10;48.90
3868;DHT22;1949;48.152;11.528;2022-12-05T08:56:17;10.10;48.90
3868;DHT22;1949;48.152;11.528;2022-12-05T08:58:43;10.10;48.80
3868;DHT22;1949;48.152;11.528;2022-12-05T09:01:11;10.10;48.80
3868;DHT22;1949;48.152;11.528;2022-12-05T09:03:37;10.10;48.80
3868;DHT22;1949;48.152;11.528;2022-12-05T09:06:11;10.10;48.80
3868;DHT22;1949;48.152;11.528;2022-12-05T09:08:38;10.10;48.80
3868;DHT22;1949;48.152;11.528;2022-12-05T09:11:09;10.10;48.80
3868;DHT22;1949;48.152;11.528;2022-12-05T09:13:35;10.10;48.80
3868;DHT22;1949;48.152;11.528;2022-12-05T09:16:08;10.20;49.00
3868;DHT22;1949;48.152;11.528;2022-12-05T09:18:34;10.20;49.00
3868;DHT22;1949;48.152;11.528;2022-12-05T09:21:12;10.20;49.00
3868;DHT22;1949;48.152;11.528;2022-12-05T09:23:38;10.20;49.00
3868;DHT22;1949;48.152;11.528;2022-12-05T09:26:05;10.30;48.90
3868;DHT22;1949;48.152;11.528;2022-12-05T09:28:32;10.30;48.90
3868;DHT22;1949;48.152;11.528;2022-12-05T09:31:03;10.30;48.80
3868;DHT22;1949;48.152;11.528;2022-12-05T09:33:31;10.30;48.80
3868;DHT22;1949;48.152;11.528;2022-12-05T09:35:57;10.30;48.80
3868;DHT22;1949;48.152;11.528;2022-12-05T09:38:23;10.30;48.90
3868;DHT22;1949;48.152;11.528;2022-12-05T09:40:56;10.20;48.80
3868;DHT22;1949;48.152;11.528;2022-12-05T09:43:33;10.30;48.80
3868;DHT22;1949;48.152;11.528;2022-12-05T09:46:13;10.20;48.80
3868;DHT22;1949;48.152;11.528;2022-12-05T09:48:49;10.30;48.90
3868;DHT22;1949;48.152;11.528;2022-12-05T09:51:15;10.20;48.90
3868;DHT22;1949;48.152;11.528;2022-12-05T09:53:42;10.20;48.80
3868;DHT22;1949;48.152;11.528;2022-12-05T09:58:43;10.20;48.90
3868;DHT22;1949;48.152;11.528;2022-12-05T10:07:17;10.20;48.90
3868;DHT22;1949;48.152;11.528;2022-12-05T10:15:46;10.20;49.00
3868;DHT22;1949;48.152;11.528;2022-12-05T10:18:33;10.20;49.10
3868;DHT22;1949;48.152;11.528;2022-12-05T10:26:16;10.20;49.10
3868;DHT22;1949;48.152;11.528;2022-12-05T10:29:06;10.20;49.10
3868;DHT22;1949;48.152;11.528;2022-12-05T10:31:36;10.20;49.20
3868;DHT22;1949;48.152;11.528;2022-12-05T10:34:09;10.20;49.20
3868;DHT22;1949;48.152;11.528;2022-12-05T10:36:37;10.20;49.20
3868;DHT22;1949;48.152;11.528;2022-12-05T10:39:04;10.20;49.20
3868;DHT22;1949;48.152;11.528;2022-12-05T10:41:33;10.30;49.30
3868;DHT22;1949;48.152;11.528;2022-12-05T10:43:58;10.30;49.40
3868;DHT22;1949;48.152;11.528;2022-12-05T10:46:27;10.30;49.20
3868;DHT22;1949;48.152;11.528;2022-12-05T10:48:54;10.30;49.30
3868;DHT22;1949;48.152;11.528;2022-12-05T10:51:26;10.30;49.30
3868;DHT22;1949;48.152;11.528;2022-12-05T10:53:52;10.40;49.30
3868;DHT22;1949;48.152;11.528;2022-12-05T10:56:47;10.40;49.20
3868;DHT22;1949;48.152;11.528;2022-12-05T10:59:20;10.40;49.20
3868;DHT22;1949;48.152;11.528;2022-12-05T11:04:42;10.40;49.40
3868;DHT22;1949;48.152;11.528;2022-12-05T11:07:32;10.40;49.40
3868;DHT22;1949;48.152;11.528;2022-12-05T11:10:01;10.50;49.40
3868;DHT22;1949;48.152;11.528;2022-12-05T11:12:35;10.50;49.30
3868;DHT22;1949;48.152;11.528;2022-12-05T11:15:20;10.50;49.30
3868;DHT22;1949;48.152;11.528;2022-12-05T11:17:52;10.50;49.30
3868;DHT22;1949;48.152;11.528;2022-12-05T11:22:46;10.50;49.20
3868;DHT22;1949;48.152;11.528;2022-12-05T11:25:33;10.50;49.30
3868;DHT22;1949;48.152;11.528;2022-12-05T11:33:39;10.50;49.10
3868;DHT22;1949;48.152;11.528;2022-12-05T11:36:21;10.50;49.20
3868;DHT22;1949;48.152;11.528;2022-12-05T11:38:48;10.50;49.40
3868;DHT22;1949;48.152;11.528;2022-12-05T11:46:48;10.50;49.50
3868;DHT22;1949;48.152;11.528;2022-12-05T11:49:56;10.50;49.50
3868;DHT22;1949;48.152;11.528;2022-12-05T11:52:51;10.50;49.30
3868;DHT22;1949;48.152;11.528;2022-12-05T11:55:32;10.50;49.30
3868;DHT22;1949;48.152;11.528;2022-12-05T12:00:47;10.50;49.30
3868;DHT22;1949;48.152;11.528;2022-12-05T12:08:48;10.40;49.20
3868;DHT22;1949;48.152;11.528;2022-12-05T12:11:26;10.30;49.30
3868;DHT22;1949;48.152;11.528;2022-12-05T12:17:01;10.30;49.60
3868;DHT22;1949;48.152;11.528;2022-12-05T12:19:44;10.40;49.70
3868;DHT22;1949;48.152;11.528;2022-12-05T12:25:07;10.40;49.50
3868;DHT22;1949;48.152;11.528;2022-12-05T12:27:44;10.40;49.50
3868;DHT22;1949;48.152;11.528;2022-12-05T12:30:23;10.40;49.40
3868;DHT22;1949;48.152;11.528;2022-12-05T12:33:17;10.30;49.40
3868;DHT22;1949;48.152;11.528;2022-12-05T12:35:58;10.30;49.50
3868;DHT22;1949;48.152;11.528;2022-12-05T12:41:32;10.40;49.80
3868;DHT22;1949;48.152;11.528;2022-12-05T12:51:56;10.40;49.70
3868;DHT22;1949;48.152;11.528;2022-12-05T12:54:34;10.50;49.70
3868;DHT22;1949;48.152;11.528;2022-12-05T12:57:14;10.50;49.70
3868;DHT22;1949;48.152;11.528;2022-12-05T13:02:43;10.50;49.50
3868;DHT22;1949;48.152;11.528;2022-12-05T13:05:32;10.50;49.60
3868;DHT22;1949;48.152;11.528;2022-12-05T13:08:05;10.50;49.40
3868;DHT22;1949;48.152;11.528;2022-12-05T13:10:45;10.50;49.40
3868;DHT22;1949;48.152;11.528;2022-12-05T13:13:27;10.40;49.30
3868;DHT22;1949;48.152;11.528;2022-12-05T13:15:57;10.40;49.40
3868;DHT22;1949;48.152;11.528;2022-12-05T13:18:28;10.40;49.40
3868;DHT22;1949;48.152;11.528;2022-12-05T13:20:58;10.40;49.40
3868;DHT22;1949;48.152;11.528;2022-12-05T13:23:32;10.40;49.40
3868;DHT22;1949;48.152;11.528;2022-12-05T13:26:00;10.40;49.40
3868;DHT22;1949;48.152;11.528;2022-12-05T13:28:50;10.40;49.40
3868;DHT22;1949;48.152;11.528;2022-12-05T13:31:19;10.40;49.40
3868;DHT22;1949;48.152;11.528;2022-12-05T13:33:59;10.30;49.40
3868;DHT22;1949;48.152;11.528;2022-12-05T13:36:25;10.30;49.30
3868;DHT22;1949;48.152;11.528;2022-12-05T13:39:18;10.30;49.20
3868;DHT22;1949;48.152;11.528;2022-12-05T13:42:04;10.30;49.40
3868;DHT22;1949;48.152;11.528;2022-12-05T13:44:41;10.30;49.40
3868;DHT22;1949;48.152;11.528;2022-12-05T13:50:13;10.20;49.30
3868;DHT22;1949;48.152;11.528;2022-12-05T13:52:55;10.20;49.30
3868;DHT22;1949;48.152;11.528;2022-12-05T13:55:53;10.20;49.20
3868;DHT22;1949;48.152;11.528;2022-12-05T14:00:47;10.10;49.20
3868;DHT22;1949;48.152;11.528;2022-12-05T14:05:57;10.10;49.30
3868;DHT22;1949;48.152;11.528;2022-12-05T14:11:11;10.10;49.30
3868;DHT22;1949;48.152;11.528;2022-12-05T14:13:43;10.10;49.30
3868;DHT22;1949;48.152;11.528;2022-12-05T14:21:56;10.10;49.40
3868;DHT22;1949;48.152;11.528;2022-12-05T14:32:38;10.20;49.60
3868;DHT22;1949;48.152;11.528;2022-12-05T14:35:16;10.20;49.50
3868;DHT22;1949;48.152;11.528;2022-12-05T14:37:53;10.20;49.30
3868;DHT22;1949;48.152;11.528;2022-12-05T14:40:28;10.10;49.30
3868;DHT22;1949;48.152;11.528;2022-12-05T14:43:21;10.10;49.40
3868;DHT22;1949;48.152;11.528;2022-12-05T14:48:37;10.10;49.30
3868;DHT22;1949;48.152;11.528;2022-12-05T14:56:51;10.10;49.50
3868;DHT22;1949;48.152;11.528;2022-12-05T15:02:25;10.20;49.70
3868;DHT22;1949;48.152;11.528;2022-12-05T15:07:42;10.20;49.70
3868;DHT22;1949;48.152;11.528;2022-12-05T15:10:32;10.20;49.70
3868;DHT22;1949;48.152;11.528;2022-12-05T15:13:11;10.20;49.60
3868;DHT22;1949;48.152;11.528;2022-12-05T15:18:30;10.20;49.60
3868;DHT22;1949;48.152;11.528;2022-12-05T15:21:08;10.20;49.60
3868;DHT22;1949;48.152;11.528;2022-12-05T15:26:25;10.20;49.60
3868;DHT22;1949;48.152;11.528;2022-12-05T15:34:28;10.30;49.80
3868;DHT22;1949;48.152;11.528;2022-12-05T15:39:28;10.30;49.70
3868;DHT22;1949;48.152;11.528;2022-12-05T15:41:55;10.30;49.60
3868;DHT22;1949;48.152;11.528;2022-12-05T15:44:39;10.30;49.70
3868;DHT22;1949;48.152;11.528;2022-12-05T15:47:22;10.20;49.60
3868;DHT22;1949;48.152;11.528;2022-12-05T15:52:55;10.30;49.80
3868;DHT22;1949;48.152;11.528;2022-12-05T15:55:34;10.30;49.90
3868;DHT22;1949;48.152;11.528;2022-12-05T15:58:21;10.30;49.80
3868;DHT22;1949;48.152;11.528;2022-12-05T16:00:49;10.30;49.90
3868;DHT22;1949;48.152;11.528;2022-12-05T16:03:22;10.30;49.80
3868;DHT22;1949;48.152;11.528;2022-12-05T16:05:57;10.30;50.00
3868;DHT22;1949;48.152;11.528;2022-12-05T16:08:24;10.30;49.80
3868;DHT22;1949;48.152;11.528;2022-12-05T16:10:55;10.40;49.90
3868;DHT22;1949;48.152;11.528;2022-12-05T16:13:25;10.30;49.80
3868;DHT22;1949;48.152;11.528;2022-12-05T16:15:53;10.40;49.80
3868;DHT22;1949;48.152;11.528;2022-12-05T16:18:29;10.30;49.80
3868;DHT22;1949;48.152;11.528;2022-12-05T16:20:55;10.30;49.80
3868;DHT22;1949;48.152;11.528;2022-12-05T16:23:37;10.30;49.80
3868;DHT22;1949;48.152;11.528;2022-12-05T16:26:19;10.30;49.80
3868;DHT22;1949;48.152;11.528;2022-12-05T16:29:01;10.30;49.90
3868;DHT22;1949;48.152;11.528;2022-12-05T16:31:27;10.40;49.90
3868;DHT22;1949;48.152;11.528;2022-12-05T16:34:11;10.40;50.00
3868;DHT22;1949;48.152;11.528;2022-12-05T16:36:45;10.40;49.80
3868;DHT22;1949;48.152;11.528;2022-12-05T16:39:14;10.40;49.80
3868;DHT22;1949;48.152;11.528;2022-12-05T16:41:44;10.30;49.70
3868;DHT22;1949;48.152;11.528;2022-12-05T16:47:22;10.40;49.80
3868;DHT22;1949;48.152;11.528;2022-12-05T16:49:48;10.30;49.70
3868;DHT22;1949;48.152;11.528;2022-12-05T16:52:14;10.40;50.30
3868;DHT22;1949;48.152;11.528;2022-12-05T16:54:46;10.30;49.60
3868;DHT22;1949;48.152;11.528;2022-12-05T16:57:16;10.30;49.60
3868;DHT22;1949;48.152;11.528;2022-12-05T16:59:43;10.30;49.70
3868;DHT22;1949;48.152;11.528;2022-12-05T17:02:15;10.30;49.60
3868;DHT22;1949;48.152;11.528;2022-12-05T17:04:42;10.30;49.60
3868;DHT22;1949;48.152;11.528;2022-12-05T17:07:08;10.30;49.60
3868;DHT22;1949;48.152;11.528;2022-12-05T17:09:34;10.30;49.60
3868;DHT22;1949;48.152;11.528;2022-12-05T17:12:21;10.30;50.30
3868;DHT22;1949;48.152;11.528;2022-12-05T17:14:49;10.30;49.60
3868;DHT22;1949;48.152;11.528;2022-12-05T17:17:15;10.30;49.70
3868;DHT22;1949;48.152;11.528;2022-12-05T17:19:44;10.30;49.60
3868;DHT22;1949;48.152;11.528;2022-12-05T17:22:11;10.30;49.90
3868;DHT22;1949;48.152;11.528;2022-12-05T17:24:39;10.30;49.80
3868;DHT22;1949;48.152;11.528;2022-12-05T17:27:07;10.20;49.60
3868;DHT22;1949;48.152;11.528;2022-12-05T17:29:33;10.20;49.50
3868;DHT22;1949;48.152;11.528;2022-12-05T17:32:01;10.20;49.60
3868;DHT22;1949;48.152;11.528;2022-12-05T17:34:27;10.10;49.60
3868;DHT22;1949;48.152;11.528;2022-12-05T17:36:53;10.10;49.60
3868;DHT22;1949;48.152;11.528;2022-12-05T17:39:19;10.10;49.60
3868;DHT22;1949;48.152;11.528;2022-12-05T17:41:45;10.00;49.60
3868;DHT22;1949;48.152;11.528;2022-12-05T17:44:14;10.00;50.10
3868;DHT22;1949;48.152;11.528;2022-12-05T17:46:42;10.00;49.70
3868;DHT22;1949;48.152;11.528;2022-12-05T17:49:12;10.00;49.90
3868;DHT22;1949;48.152;11.528;2022-12-05T17:51:40;10.00;49.80
3868;DHT22;1949;48.152;11.528;2022-12-05T17:54:07;10.00;49.70
3868;DHT22;1949;48.152;11.528;2022-12-05T17:56:35;9.90;50.60
3868;DHT22;1949;48.152;11.528;2022-12-05T17:59:01;9.90;50.70
3868;DHT22;1949;48.152;11.528;2022-12-05T18:01:27;9.90;50.70
3868;DHT22;1949;48.152;11.528;2022-12-05T18:03:52;10.00;50.00
3868;DHT22;1949;48.152;11.528;2022-12-05T18:06:18;10.00;49.90
3868;DHT22;1949;48.152;11.528;2022-12-05T18:08:44;10.10;49.90
3868;DHT22;1949;48.152;11.528;2022-12-05T18:11:12;10.00;49.90
3868;DHT22;1949;48.152;11.528;2022-12-05T18:13:38;10.10;49.90
3868;DHT22;1949;48.152;11.528;2022-12-05T18:16:04;10.10;49.80
3868;DHT22;1949;48.152;11.528;2022-12-05T18:18:30;10.10;49.70
3868;DHT22;1949;48.152;11.528;2022-12-05T18:21:06;10.10;49.60
3868;DHT22;1949;48.152;11.528;2022-12-05T18:23:34;10.10;49.60
3868;DHT22;1949;48.152;11.528;2022-12-05T18:26:01;10.10;49.70
3868;DHT22;1949;48.152;11.528;2022-12-05T18:28:26;10.00;49.70
3868;DHT22;1949;48.152;11.528;2022-12-05T18:33:29;10.10;49.90
3868;DHT22;1949;48.152;11.528;2022-12-05T18:35:56;10.10;49.70
3868;DHT22;1949;48.152;11.528;2022-12-05T18:38:22;10.10;49.70
3868;DHT22;1949;48.152;11.528;2022-12-05T18:40:48;10.10;49.80
3868;DHT22;1949;48.152;11.528;2022-12-05T18:43:14;10.10;49.80
3868;DHT22;1949;48.152;11.528;2022-12-05T18:45:40;10.10;49.70
3868;DHT22;1949;48.152;11.528;2022-12-05T18:48:06;10.10;49.80
3868;DHT22;1949;48.152;11.528;2022-12-05T18:50:31;10.10;49.70
3868;DHT22;1949;48.152;11.528;2022-12-05T18:52:57;10.10;49.80
3868;DHT22;1949;48.152;11.528;2022-12-05T18:55:24;10.10;49.70
3868;DHT22;1949;48.152;11.528;2022-12-05T18:57:50;10.10;49.60
3868;DHT22;1949;48.152;11.528;2022-12-05T19:00:18;10.10;49.50
3868;DHT22;1949;48.152;11.528;2022-12-05T19:02:46;10.10;49.60
3868;DHT22;1949;48.152;11.528;2022-12-05T19:05:12;10.10;49.50
3868;DHT22;1949;48.152;11.528;2022-12-05T19:07:39;10.10;49.70
3868;DHT22;1949;48.152;11.528;2022-12-05T19:10:06;10.10;49.70
3868;DHT22;1949;48.152;11.528;2022-12-05T19:12:32;10.10;49.70
3868;DHT22;1949;48.152;11.528;2022-12-05T19:14:59;10.10;49.70
3868;DHT22;1949;48.152;11.528;2022-12-05T19:17:24;10.10;49.60
3868;DHT22;1949;48.152;11.528;2022-12-05T19:19:50;10.10;49.50
3868;DHT22;1949;48.152;11.528;2022-12-05T19:22:18;10.10;49.50
3868;DHT22;1949;48.152;11.528;2022-12-05T19:24:48;10.10;49.50
3868;DHT22;1949;48.152;11.528;2022-12-05T19:27:16;10.10;49.50
3868;DHT22;1949;48.152;11.528;2022-12-05T19:29:41;10.10;49.50